Franktown, Colorado
Current Conditions -  °F | °C
As of 7:53 PM on Saturday 22 Nov 2014 (Local Time) from KAPA Reporting Station
Broken Clouds Broken Clouds  
Wind Chill: 39°   Ceiling: 20000
Heat Index: 43°   Visibility: 10mi
Dew Point: 25°   Wind: 6mph
Humidity: 49%   Direction: 190°S
Pressure: 29.62"   Gusts: NA
Location:  39.39°N, 104.75°W
Report Text: KAPA 230253Z 19005KT 10SM FEW100 SCT120 BKN200 06/M04 A2962 RMK AO2 SLP013 T00611039 53003
Loading
Personal Weather Stations






























Interactive Weather Map New forecast layout! Learn more

10-Day Weather Forecast

Advertisements
Track Severe Weather on mobile